Time;durP1;ratioP1;P1;durP2;ratioP2;P2;SDS_P1;SDS_P2;PMS_P1;PMS_P2;Temp;Humidity;BMP_temperature;BMP_pressure;BME280_temperature;BME280_humidity;BME280_pressure;Samples;Min_cycle;Max_cycle;Signal;HPM_P1;HPM_P2
2023/07/03 00:01:29;;;;;;;18.13;9.10;;;13.40;99.90;;;;;;478948;248;28444;-79
2023/07/03 00:03:30;;;;;;;13.20;9.30;;;13.30;99.90;;;;;;478645;245;28360;-79
2023/07/03 00:05:32;;;;;;;14.37;9.00;;;13.40;99.90;;;;;;478915;248;28226;-78
2023/07/03 00:07:33;;;;;;;15.20;8.33;;;13.40;99.90;;;;;;478836;248;28429;-78
2023/07/03 00:09:34;;;;;;;13.67;8.93;;;13.30;99.90;;;;;;478962;248;28735;-79
2023/07/03 00:11:35;;;;;;;17.27;9.50;;;13.40;99.90;;;;;;478960;243;29179;-78
2023/07/03 00:13:37;;;;;;;20.03;11.10;;;13.30;99.90;;;;;;478915;248;28564;-79
2023/07/03 00:15:38;;;;;;;18.33;9.63;;;13.30;99.90;;;;;;478942;248;28211;-79
2023/07/03 00:17:39;;;;;;;19.60;10.20;;;13.20;99.90;;;;;;478909;248;28347;-79
2023/07/03 00:19:40;;;;;;;18.60;9.00;;;13.20;99.90;;;;;;478961;247;28442;-79
2023/07/03 00:21:46;;;;;;;14.33;9.03;;;13.20;99.90;;;;;;478942;248;28728;-78
2023/07/03 00:23:43;;;;;;;20.43;11.20;;;13.30;99.90;;;;;;478615;248;28551;-79
2023/07/03 00:25:44;;;;;;;20.60;10.60;;;13.10;99.90;;;;;;478934;248;28747;-79
2023/07/03 00:27:46;;;;;;;20.83;10.30;;;13.10;99.90;;;;;;478929;248;29345;-79
2023/07/03 00:29:47;;;;;;;19.43;9.80;;;13.20;99.90;;;;;;478835;248;28466;-79
2023/07/03 00:31:48;;;;;;;15.80;9.83;;;13.20;99.90;;;;;;478980;248;28424;-79
2023/07/03 00:33:49;;;;;;;18.43;10.77;;;13.10;99.90;;;;;;478884;248;28449;-79
2023/07/03 00:35:50;;;;;;;22.00;10.20;;;13.00;99.90;;;;;;478967;248;28398;-78
2023/07/03 00:37:52;;;;;;;19.93;10.43;;;13.00;99.90;;;;;;478972;248;28435;-79
2023/07/03 00:39:53;;;;;;;15.90;10.23;;;13.00;99.90;;;;;;478932;246;28342;-79
2023/07/03 00:41:54;;;;;;;15.97;9.00;;;13.10;99.90;;;;;;478928;248;29229;-79
2023/07/03 00:43:55;;;;;;;16.30;9.53;;;13.10;99.90;;;;;;478926;248;29328;-79
2023/07/03 00:45:57;;;;;;;21.13;10.17;;;13.10;99.90;;;;;;478914;246;28361;-78
2023/07/03 00:47:58;;;;;;;18.30;9.70;;;13.00;99.90;;;;;;478921;248;28357;-78
2023/07/03 00:49:59;;;;;;;16.33;9.10;;;12.90;99.90;;;;;;478935;248;28776;-78
2023/07/03 00:52:01;;;;;;;16.80;8.80;;;13.00;99.90;;;;;;478932;248;28536;-79
2023/07/03 00:54:02;;;;;;;18.80;10.27;;;12.90;99.90;;;;;;478867;248;28350;-79
2023/07/03 00:56:03;;;;;;;19.10;9.70;;;12.90;99.90;;;;;;478804;248;28298;-78
2023/07/03 00:58:04;;;;;;;19.60;9.90;;;12.90;99.90;;;;;;478888;246;28920;-78
2023/07/03 01:00:06;;;;;;;19.10;9.83;;;12.90;99.90;;;;;;478921;248;29061;-79
2023/07/03 01:02:07;;;;;;;22.43;11.00;;;12.90;99.90;;;;;;478676;248;28195;-79
2023/07/03 01:04:08;;;;;;;19.10;11.00;;;12.80;99.90;;;;;;478904;248;28434;-79
2023/07/03 01:06:09;;;;;;;28.90;10.60;;;12.80;99.90;;;;;;478840;246;28302;-78
2023/07/03 01:08:11;;;;;;;18.90;10.70;;;12.80;99.90;;;;;;478920;248;28334;-79
2023/07/03 01:10:12;;;;;;;18.03;10.50;;;12.80;99.90;;;;;;478872;243;28440;-78
2023/07/03 01:12:13;;;;;;;16.70;9.17;;;12.90;99.90;;;;;;478932;248;28187;-77
2023/07/03 01:14:14;;;;;;;22.07;10.83;;;12.90;99.90;;;;;;478912;248;28846;-78
2023/07/03 01:16:16;;;;;;;17.60;10.57;;;12.80;99.90;;;;;;478921;248;28771;-78
2023/07/03 01:18:17;;;;;;;23.77;11.00;;;12.70;99.90;;;;;;478886;248;28448;-78
2023/07/03 01:20:18;;;;;;;28.73;10.73;;;12.70;99.90;;;;;;478939;248;28238;-78
2023/07/03 01:22:19;;;;;;;18.70;9.80;;;12.60;99.90;;;;;;478928;248;28081;-78
2023/07/03 01:24:21;;;;;;;15.70;9.20;;;12.60;99.90;;;;;;478941;248;28229;-78
2023/07/03 01:26:22;;;;;;;20.40;10.67;;;12.70;99.90;;;;;;478935;248;28164;-78
2023/07/03 01:28:23;;;;;;;17.93;10.40;;;12.70;99.90;;;;;;478933;248;28511;-79
2023/07/03 01:30:24;;;;;;;17.10;9.87;;;12.60;99.90;;;;;;478974;248;28629;-78
2023/07/03 01:32:26;;;;;;;18.33;9.30;;;12.70;99.90;;;;;;478982;248;28108;-78
2023/07/03 01:34:27;;;;;;;16.47;9.83;;;12.70;99.90;;;;;;478955;248;28229;-79
2023/07/03 01:36:28;;;;;;;17.20;9.93;;;12.70;99.90;;;;;;478952;248;28134;-78
2023/07/03 01:38:29;;;;;;;19.87;10.03;;;12.70;99.90;;;;;;478938;248;28120;-78
2023/07/03 01:40:31;;;;;;;17.00;9.40;;;12.60;99.90;;;;;;478941;248;28252;-78
2023/07/03 01:42:35;;;;;;;18.00;10.10;;;12.70;99.90;;;;;;478945;246;28143;-79
2023/07/03 01:44:33;;;;;;;16.43;9.10;;;12.70;99.90;;;;;;478707;248;28339;-78
2023/07/03 01:46:35;;;;;;;15.57;8.93;;;12.70;99.90;;;;;;478896;248;28193;-79
2023/07/03 01:48:36;;;;;;;15.37;8.70;;;12.70;99.90;;;;;;478929;243;28174;-78
2023/07/03 01:50:37;;;;;;;22.57;10.37;;;12.70;99.90;;;;;;478974;248;28444;-78
2023/07/03 01:52:38;;;;;;;22.47;10.27;;;12.60;99.90;;;;;;478930;248;28564;-78
2023/07/03 01:54:40;;;;;;;19.27;10.93;;;12.60;99.90;;;;;;478946;248;28714;-79
2023/07/03 01:56:41;;;;;;;20.77;10.13;;;12.70;99.90;;;;;;478948;248;28093;-79
2023/07/03 01:58:42;;;;;;;16.67;9.63;;;12.70;99.90;;;;;;478949;248;28230;-79
2023/07/03 02:00:45;;;;;;;20.30;10.10;;;;;;;;;;478980;248;28327;-79
2023/07/03 02:02:46;;;;;;;17.43;9.30;;;12.80;99.90;;;;;;478947;248;27044;-79
2023/07/03 02:04:47;;;;;;;16.90;9.70;;;12.90;99.90;;;;;;478901;248;28136;-79
2023/07/03 02:06:48;;;;;;;16.13;9.43;;;12.90;99.90;;;;;;478928;248;28356;-79
2023/07/03 02:08:50;;;;;;;22.80;11.03;;;12.90;99.90;;;;;;478956;248;28482;-79
2023/07/03 02:10:51;;;;;;;17.57;9.90;;;12.90;99.90;;;;;;478908;248;28298;-78
2023/07/03 02:12:52;;;;;;;15.67;9.87;;;13.00;99.90;;;;;;478933;248;28243;-78
2023/07/03 02:14:53;;;;;;;14.53;9.00;;;13.10;99.90;;;;;;478937;248;28189;-78
2023/07/03 02:16:55;;;;;;;16.27;9.53;;;13.10;99.90;;;;;;478933;248;28908;-79
2023/07/03 02:18:56;;;;;;;15.50;9.83;;;13.10;99.90;;;;;;478885;248;29187;-79
2023/07/03 02:20:57;;;;;;;16.40;9.10;;;13.20;99.90;;;;;;478950;248;28452;-79
2023/07/03 02:22:58;;;;;;;19.40;10.87;;;13.20;99.90;;;;;;478895;248;28328;-79
2023/07/03 02:25:00;;;;;;;15.60;8.70;;;13.20;99.90;;;;;;478874;248;28083;-79
2023/07/03 02:27:01;;;;;;;17.30;9.53;;;13.20;99.90;;;;;;478888;242;28790;-79
2023/07/03 02:29:02;;;;;;;25.50;9.73;;;13.20;99.90;;;;;;478927;248;28480;-78
2023/07/03 02:31:03;;;;;;;21.60;10.07;;;13.30;99.90;;;;;;478964;248;28416;-79
2023/07/03 02:33:05;;;;;;;20.73;9.80;;;13.30;99.90;;;;;;478943;248;28282;-78
2023/07/03 02:35:06;;;;;;;19.90;9.87;;;13.40;99.90;;;;;;478948;248;28304;-79
2023/07/03 02:37:08;;;;;;;21.40;8.90;;;13.40;99.90;;;;;;478724;243;28755;-79
2023/07/03 02:39:09;;;;;;;15.33;9.50;;;13.30;99.90;;;;;;478901;248;28905;-79
2023/07/03 02:41:10;;;;;;;13.57;9.13;;;13.40;99.90;;;;;;478922;247;28985;-79
2023/07/03 02:43:11;;;;;;;12.23;8.70;;;13.40;99.90;;;;;;478930;248;28436;-78
2023/07/03 02:45:12;;;;;;;12.67;8.93;;;13.50;99.90;;;;;;478941;248;28326;-79
2023/07/03 02:47:14;;;;;;;15.57;9.07;;;13.50;99.90;;;;;;478945;248;28213;-78
2023/07/03 02:49:15;;;;;;;17.00;9.30;;;13.50;99.90;;;;;;478721;248;28341;-78
2023/07/03 02:51:16;;;;;;;19.90;9.60;;;13.50;99.90;;;;;;478881;248;28387;-79
2023/07/03 02:53:17;;;;;;;16.10;9.10;;;13.60;99.90;;;;;;478939;248;28491;-79
2023/07/03 02:55:19;;;;;;;16.70;9.80;;;13.60;99.90;;;;;;478936;248;28485;-79
2023/07/03 02:57:20;;;;;;;19.83;9.03;;;13.60;99.90;;;;;;478951;248;28956;-79
2023/07/03 02:59:22;;;;;;;18.10;9.50;;;13.60;99.90;;;;;;478967;248;28447;-79
2023/07/03 03:01:22;;;;;;;20.23;10.03;;;13.60;99.90;;;;;;478860;248;28486;-79
2023/07/03 03:03:24;;;;;;;17.03;10.00;;;13.60;99.90;;;;;;478937;248;28748;-78
2023/07/03 03:05:25;;;;;;;19.33;10.50;;;13.60;99.90;;;;;;478913;248;28185;-79
2023/07/03 03:07:26;;;;;;;21.00;10.30;;;13.50;99.90;;;;;;478893;248;28451;-79
2023/07/03 03:09:27;;;;;;;19.10;10.43;;;13.40;99.90;;;;;;478999;243;29011;-79
2023/07/03 03:11:29;;;;;;;20.40;10.13;;;13.40;99.90;;;;;;478957;248;29206;-79
2023/07/03 03:13:30;;;;;;;17.70;9.80;;;13.50;99.90;;;;;;478980;248;28758;-78
2023/07/03 03:15:34;;;;;;;17.47;9.60;;;13.50;99.90;;;;;;478925;248;28453;-78
2023/07/03 03:17:32;;;;;;;20.23;9.90;;;13.50;99.90;;;;;;478741;248;28443;-78
2023/07/03 03:19:34;;;;;;;18.00;10.20;;;13.50;99.90;;;;;;478999;248;28909;-79
2023/07/03 03:21:35;;;;;;;26.83;10.50;;;13.50;99.90;;;;;;478999;246;28432;-79
2023/07/03 03:23:36;;;;;;;20.30;10.00;;;13.60;99.90;;;;;;478998;248;28316;-81
2023/07/03 03:25:37;;;;;;;18.40;10.27;;;13.50;99.90;;;;;;478949;248;29076;-79
2023/07/03 03:27:39;;;;;;;17.83;9.30;;;13.50;99.90;;;;;;478937;246;28927;-79
2023/07/03 03:29:40;;;;;;;16.43;9.40;;;13.50;99.90;;;;;;478926;248;28815;-79
2023/07/03 03:31:41;;;;;;;18.70;9.70;;;13.60;99.90;;;;;;478972;248;28505;-79
2023/07/03 03:33:42;;;;;;;14.07;9.00;;;13.60;99.90;;;;;;478970;248;28759;-77
2023/07/03 03:35:44;;;;;;;18.87;10.73;;;13.50;99.90;;;;;;478938;248;28440;-78
2023/07/03 03:37:45;;;;;;;17.60;10.10;;;13.60;99.90;;;;;;478869;248;28560;-79
2023/07/03 03:39:46;;;;;;;15.80;9.50;;;13.60;99.90;;;;;;478951;247;28481;-79
2023/07/03 03:41:47;;;;;;;20.10;9.37;;;13.60;99.90;;;;;;478981;248;28942;-79
2023/07/03 03:43:49;;;;;;;22.40;10.67;;;13.50;99.90;;;;;;478943;248;28947;-79
2023/07/03 03:45:50;;;;;;;29.63;10.40;;;13.50;99.90;;;;;;478844;243;28393;-79
2023/07/03 03:47:52;;;;;;;19.77;9.23;;;13.60;99.90;;;;;;478947;248;28342;-79
2023/07/03 03:49:53;;;;;;;17.53;9.03;;;13.60;99.90;;;;;;478970;248;28839;-79
2023/07/03 03:51:54;;;;;;;18.40;9.57;;;13.60;99.90;;;;;;478965;248;28709;-79
2023/07/03 03:53:55;;;;;;;15.03;9.23;;;13.60;99.90;;;;;;478929;248;28575;-79
2023/07/03 03:55:56;;;;;;;18.70;9.33;;;13.60;99.90;;;;;;478962;248;28721;-79
2023/07/03 03:57:57;;;;;;;20.20;10.10;;;13.60;99.90;;;;;;478945;248;28770;-78
2023/07/03 03:59:59;;;;;;;18.00;9.60;;;13.60;99.90;;;;;;478980;248;29418;-78
2023/07/03 04:02:00;;;;;;;19.87;10.50;;;13.60;99.90;;;;;;478896;248;28906;-79
2023/07/03 04:04:01;;;;;;;15.30;10.13;;;13.60;99.90;;;;;;478969;248;28553;-78
2023/07/03 04:06:03;;;;;;;16.07;9.93;;;13.60;99.90;;;;;;478952;248;28722;-79
2023/07/03 04:08:04;;;;;;;19.47;10.30;;;13.70;99.90;;;;;;478956;246;28795;-79
2023/07/03 04:10:05;;;;;;;17.30;9.70;;;13.70;99.90;;;;;;478918;242;28491;-79
2023/07/03 04:12:07;;;;;;;17.30;9.27;;;13.70;99.90;;;;;;478931;248;28189;-79
2023/07/03 04:14:08;;;;;;;16.93;9.77;;;13.60;99.90;;;;;;478978;248;29387;-79
2023/07/03 04:16:09;;;;;;;16.67;9.30;;;13.60;99.90;;;;;;478956;248;29268;-79
2023/07/03 04:18:10;;;;;;;18.13;9.77;;;13.70;99.90;;;;;;478953;246;29236;-79
2023/07/03 04:20:13;;;;;;;18.57;9.10;;;13.70;99.90;;;;;;478963;248;28431;-79
2023/07/03 04:22:13;;;;;;;16.67;10.50;;;13.70;99.90;;;;;;478786;248;28302;-79
2023/07/03 04:24:14;;;;;;;16.00;9.03;;;13.80;99.90;;;;;;478961;248;28552;-78
2023/07/03 04:26:15;;;;;;;16.93;9.97;;;13.80;99.90;;;;;;478877;248;28410;-79
2023/07/03 04:28:16;;;;;;;22.70;10.03;;;13.90;99.90;;;;;;478963;243;28771;-79
2023/07/03 04:30:18;;;;;;;16.73;9.50;;;13.90;99.90;;;;;;478905;248;28779;-79
2023/07/03 04:32:19;;;;;;;17.20;9.63;;;14.00;99.90;;;;;;478943;243;29291;-79
2023/07/03 04:34:20;;;;;;;16.83;9.37;;;14.00;99.90;;;;;;478970;248;29195;-79
2023/07/03 04:36:21;;;;;;;17.47;8.90;;;14.10;99.90;;;;;;478935;248;29174;-79
2023/07/03 04:38:26;;;;;;;23.73;10.10;;;14.10;99.90;;;;;;478942;248;28753;-79
2023/07/03 04:40:24;;;;;;;17.17;9.47;;;14.20;99.90;;;;;;478648;248;28743;-79
2023/07/03 04:42:25;;;;;;;19.27;9.63;;;14.30;99.90;;;;;;478976;248;28752;-79
2023/07/03 04:44:26;;;;;;;17.50;9.93;;;14.30;99.90;;;;;;478964;247;28503;-79
2023/07/03 04:46:28;;;;;;;17.40;9.63;;;14.30;99.90;;;;;;478961;248;28879;-79
2023/07/03 04:48:29;;;;;;;16.93;9.03;;;14.40;99.90;;;;;;478936;248;28827;-79
2023/07/03 04:50:31;;;;;;;15.93;10.17;;;14.50;99.90;;;;;;478893;248;30049;-78
2023/07/03 04:52:32;;;;;;;17.87;9.67;;;14.50;99.90;;;;;;478892;248;29187;-78
2023/07/03 04:54:33;;;;;;;18.23;9.60;;;14.60;99.90;;;;;;478964;243;28750;-79
2023/07/03 04:56:34;;;;;;;17.73;9.77;;;14.60;99.90;;;;;;478956;248;28737;-79
2023/07/03 04:58:35;;;;;;;17.80;10.47;;;14.50;99.90;;;;;;478938;247;28771;-79
2023/07/03 05:00:37;;;;;;;17.50;9.83;;;14.60;99.90;;;;;;478934;248;28703;-79
2023/07/03 05:02:38;;;;;;;19.80;10.00;;;14.60;99.90;;;;;;478955;248;28770;-79
2023/07/03 05:04:39;;;;;;;16.20;8.57;;;14.60;99.90;;;;;;478953;248;28784;-79
2023/07/03 05:06:40;;;;;;;18.40;9.60;;;14.60;99.90;;;;;;478969;248;29162;-79
2023/07/03 05:08:41;;;;;;;22.33;9.77;;;14.60;99.90;;;;;;478939;248;29247;-79
2023/07/03 05:10:43;;;;;;;20.10;9.60;;;14.60;99.90;;;;;;478944;248;29173;-79
2023/07/03 05:12:44;;;;;;;22.57;9.57;;;14.70;99.90;;;;;;478963;247;28769;-79
2023/07/03 05:16:45;;;;;;;19.90;10.90;;;14.90;99.90;;;;;;478262;240;29269;-78
2023/07/03 05:18:47;;;;;;;15.60;9.07;;;14.90;99.90;;;;;;460657;258;27536;-79
2023/07/03 05:20:48;;;;;;;18.20;9.70;;;14.90;99.90;;;;;;476662;248;28756;-79
2023/07/03 05:22:49;;;;;;;23.50;9.47;;;14.80;99.90;;;;;;468819;253;28893;-79
2023/07/03 05:24:50;;;;;;;16.73;9.87;;;14.80;99.90;;;;;;476678;248;29304;-79
2023/07/03 05:26:52;;;;;;;21.73;9.23;;;14.80;99.90;;;;;;468833;253;29429;-78
2023/07/03 05:28:53;;;;;;;25.23;9.30;;;14.70;99.90;;;;;;476695;248;28738;-79
2023/07/03 05:30:55;;;;;;;20.60;9.10;;;14.90;99.90;;;;;;468808;253;28895;-79
2023/07/03 05:32:55;;;;;;;20.40;9.20;;;15.00;99.90;;;;;;476730;248;28845;-78
2023/07/03 05:34:57;;;;;;;13.10;7.90;;;15.20;99.90;;;;;;468875;253;28892;-79
2023/07/03 05:36:58;;;;;;;20.63;9.77;;;15.30;99.90;;;;;;476691;248;28812;-79
2023/07/03 05:38:59;;;;;;;16.93;8.97;;;15.30;99.90;;;;;;468814;253;28874;-79
2023/07/03 05:41:00;;;;;;;12.93;7.80;;;15.20;99.90;;;;;;476685;248;28771;-79
2023/07/03 05:43:02;;;;;;;17.70;8.33;;;15.20;99.90;;;;;;468810;253;30278;-79
2023/07/03 05:45:03;;;;;;;25.43;9.70;;;15.20;99.90;;;;;;476685;248;29304;-79
2023/07/03 05:47:04;;;;;;;16.10;8.50;;;15.30;99.90;;;;;;468820;253;28925;-79
2023/07/03 05:49:06;;;;;;;15.37;8.40;;;15.30;99.90;;;;;;476681;248;28855;-79
2023/07/03 05:51:07;;;;;;;18.43;8.30;;;15.30;99.90;;;;;;468809;253;28896;-79
2023/07/03 05:53:08;;;;;;;16.80;7.80;;;15.20;99.90;;;;;;476655;248;28821;-79
2023/07/03 05:55:10;;;;;;;19.73;9.30;;;15.20;99.90;;;;;;468819;253;28895;-79
2023/07/03 05:57:11;;;;;;;11.30;7.20;;;15.40;99.90;;;;;;476663;248;28778;-79
2023/07/03 05:59:12;;;;;;;18.70;7.17;;;15.40;99.90;;;;;;468769;253;28993;-79
2023/07/03 06:01:13;;;;;;;16.33;7.23;;;15.50;99.90;;;;;;476656;248;29331;-79
2023/07/03 06:03:15;;;;;;;16.00;7.30;;;15.60;99.90;;;;;;468795;253;29504;-79
2023/07/03 06:05:16;;;;;;;19.00;7.63;;;15.70;99.90;;;;;;476702;248;28789;-79
2023/07/03 06:07:17;;;;;;;12.87;6.97;;;15.80;99.90;;;;;;468790;253;28966;-80
2023/07/03 06:09:18;;;;;;;19.07;8.20;;;15.80;99.90;;;;;;476660;248;28740;-79
2023/07/03 06:11:19;;;;;;;18.03;8.03;;;15.90;99.90;;;;;;468804;253;28907;-79
2023/07/03 06:13:21;;;;;;;16.53;6.97;;;15.80;99.90;;;;;;476655;248;28736;-79
2023/07/03 06:15:22;;;;;;;16.90;7.90;;;15.90;99.90;;;;;;468811;253;28978;-79
2023/07/03 06:17:23;;;;;;;16.87;7.13;;;15.80;99.90;;;;;;476688;248;28759;-79
2023/07/03 06:19:24;;;;;;;14.40;6.77;;;15.90;99.90;;;;;;468805;253;29285;-79
2023/07/03 06:21:26;;;;;;;16.63;7.00;;;15.80;99.90;;;;;;476642;248;29363;-79
2023/07/03 06:23:27;;;;;;;16.33;7.53;;;15.80;99.90;;;;;;468802;253;29569;-79
2023/07/03 06:25:28;;;;;;;16.10;6.40;;;15.80;99.90;;;;;;476674;248;28783;-79
2023/07/03 06:27:29;;;;;;;18.23;7.00;;;15.90;99.90;;;;;;468810;253;28915;-79
2023/07/03 06:29:31;;;;;;;18.30;7.03;;;15.90;99.90;;;;;;476672;248;28810;-79
2023/07/03 06:31:32;;;;;;;13.13;6.70;;;16.10;99.90;;;;;;468769;253;28986;-79
2023/07/03 06:33:33;;;;;;;15.47;6.90;;;16.20;99.90;;;;;;476660;248;28773;-79
2023/07/03 06:35:34;;;;;;;18.97;7.60;;;16.30;99.90;;;;;;468801;253;28869;-79
2023/07/03 06:37:36;;;;;;;12.53;6.50;;;16.40;99.90;;;;;;476634;248;29382;-78
2023/07/03 06:39:37;;;;;;;11.50;5.53;;;16.40;99.90;;;;;;468799;253;29419;-79
2023/07/03 06:41:38;;;;;;;16.20;7.50;;;16.70;99.90;;;;;;476660;244;29247;-79
2023/07/03 06:43:39;;;;;;;12.90;6.00;;;16.70;99.90;;;;;;468762;253;28931;-79
2023/07/03 06:45:41;;;;;;;17.80;7.00;;;16.90;99.90;;;;;;476709;248;28735;-79
2023/07/03 06:47:42;;;;;;;15.30;5.50;;;16.90;99.90;;;;;;468828;253;28997;-79
2023/07/03 06:49:43;;;;;;;15.60;6.83;;;16.80;99.90;;;;;;476694;248;28733;-79
2023/07/03 06:51:44;;;;;;;17.73;6.23;;;16.70;99.90;;;;;;468801;253;29538;-79
2023/07/03 06:53:46;;;;;;;15.13;6.10;;;16.70;99.90;;;;;;476650;244;29253;-78
2023/07/03 06:55:47;;;;;;;11.30;6.00;;;16.80;99.90;;;;;;468799;253;29505;-79
2023/07/03 06:57:48;;;;;;;16.30;5.90;;;16.90;99.90;;;;;;476690;248;28784;-79
2023/07/03 06:59:50;;;;;;;12.00;5.07;;;16.90;99.90;;;;;;468798;253;28875;-79
2023/07/03 07:01:51;;;;;;;11.87;5.67;;;16.90;99.90;;;;;;476670;248;28836;-78
2023/07/03 07:03:52;;;;;;;10.80;4.70;;;16.80;99.90;;;;;;468797;253;28942;-79
2023/07/03 07:05:54;;;;;;;12.50;5.30;;;16.90;99.90;;;;;;476660;248;28852;-79
2023/07/03 07:07:54;;;;;;;10.40;4.77;;;17.00;99.90;;;;;;468678;253;28914;-79
2023/07/03 07:09:56;;;;;;;10.53;5.20;;;17.10;99.90;;;;;;476677;248;29488;-79
2023/07/03 07:11:57;;;;;;;14.10;5.27;;;17.30;99.90;;;;;;468787;254;29514;-79
2023/07/03 07:13:58;;;;;;;11.63;5.13;;;17.40;99.90;;;;;;476659;248;28752;-78
2023/07/03 07:15:59;;;;;;;16.90;4.77;;;17.50;99.90;;;;;;468797;249;28882;-79
2023/07/03 07:18:01;;;;;;;9.60;5.17;;;17.60;99.90;;;;;;476662;248;28850;-78
2023/07/03 07:20:02;;;;;;;11.57;4.40;;;17.60;99.90;;;;;;468727;254;28959;-79
2023/07/03 07:22:03;;;;;;;8.40;4.10;;;17.50;99.90;;;;;;476663;248;28871;-79
2023/07/03 07:24:05;;;;;;;10.00;4.20;;;17.40;99.90;;;;;;468783;253;28883;-78
2023/07/03 07:26:06;;;;;;;12.40;3.97;;;17.40;99.90;;;;;;476670;248;28791;-79
2023/07/03 07:28:07;;;;;;;11.27;4.30;;;17.30;99.90;;;;;;468802;254;29466;-79
2023/07/03 07:30:08;;;;;;;8.20;4.20;;;17.30;99.90;;;;;;476634;249;29303;-79
2023/07/03 07:32:10;;;;;;;12.80;4.93;;;17.40;99.90;;;;;;468788;254;29387;-79
2023/07/03 07:34:11;;;;;;;15.93;4.97;;;17.60;99.90;;;;;;476615;248;28771;-79
2023/07/03 07:36:12;;;;;;;8.90;4.00;;;17.70;99.90;;;;;;468759;253;28911;-79
2023/07/03 07:38:13;;;;;;;13.97;4.77;;;17.70;99.90;;;;;;476522;248;28776;-79
2023/07/03 07:40:15;;;;;;;13.83;4.27;;;17.60;99.90;;;;;;468767;254;28879;-79
2023/07/03 07:42:16;;;;;;;12.30;4.07;;;17.30;99.90;;;;;;476619;244;28873;-79
2023/07/03 07:44:17;;;;;;;5.30;3.33;;;17.30;99.90;;;;;;468790;254;28879;-79
2023/07/03 07:46:18;;;;;;;14.20;4.40;;;17.30;99.90;;;;;;476603;248;28848;-79
2023/07/03 07:48:20;;;;;;;8.30;3.60;;;17.30;99.90;;;;;;468782;254;29397;-79
2023/07/03 07:50:21;;;;;;;15.87;4.13;;;17.20;99.90;;;;;;476670;248;29253;-79
2023/07/03 07:52:25;;;;;;;11.00;4.50;;;17.30;99.90;;;;;;468798;254;28907;-79
2023/07/03 07:54:23;;;;;;;11.50;3.80;;;17.20;99.90;;;;;;476144;249;28875;-79
2023/07/03 07:56:26;;;;;;;7.80;3.80;;;17.10;99.90;;;;;;468774;253;28882;-79
2023/07/03 07:58:26;;;;;;;7.93;3.87;;;17.10;99.90;;;;;;476619;249;28793;-79
2023/07/03 08:00:27;;;;;;;9.17;4.27;;;17.10;99.90;;;;;;468787;253;28961;-79
2023/07/03 08:02:28;;;;;;;11.77;4.37;;;17.10;99.90;;;;;;476677;248;28776;-79
2023/07/03 08:04:30;;;;;;;7.50;3.60;;;17.00;99.90;;;;;;468789;253;28966;-79
2023/07/03 08:06:31;;;;;;;7.33;3.70;;;17.00;99.90;;;;;;476677;244;29296;-79
2023/07/03 08:08:32;;;;;;;8.50;4.00;;;17.10;99.90;;;;;;468815;253;29476;-79
2023/07/03 08:10:33;;;;;;;12.97;4.13;;;17.00;99.90;;;;;;476686;248;28821;-79
2023/07/03 08:12:35;;;;;;;9.43;3.87;;;17.00;99.90;;;;;;468775;253;28898;-79
2023/07/03 08:14:36;;;;;;;8.97;3.87;;;17.00;99.90;;;;;;476687;248;28857;-79
2023/07/03 08:16:37;;;;;;;11.30;3.77;;;16.80;99.90;;;;;;468791;253;29053;-79
2023/07/03 08:18:38;;;;;;;11.43;4.27;;;16.90;99.90;;;;;;476671;248;29151;-79
2023/07/03 08:20:40;;;;;;;8.97;3.97;;;17.30;99.90;;;;;;468828;253;28897;-80
2023/07/03 08:22:41;;;;;;;8.10;4.03;;;17.40;99.90;;;;;;476702;244;28880;-80
2023/07/03 08:24:42;;;;;;;7.20;3.90;;;17.80;99.90;;;;;;468820;253;28950;-79
2023/07/03 08:26:43;;;;;;;13.23;4.80;;;18.00;99.90;;;;;;476653;248;29269;-79
2023/07/03 08:28:45;;;;;;;9.03;3.87;;;18.30;99.90;;;;;;468820;253;29562;-79
2023/07/03 08:30:46;;;;;;;14.80;4.77;;;18.40;99.90;;;;;;476682;248;29270;-79
2023/07/03 08:32:47;;;;;;;10.87;4.37;;;18.40;99.90;;;;;;468778;253;28985;-78
2023/07/03 08:34:49;;;;;;;8.80;3.53;;;18.30;99.90;;;;;;476631;249;28799;-79
2023/07/03 08:36:52;;;;;;;12.40;4.70;;;18.00;99.90;;;;;;468784;253;28879;-79
2023/07/03 08:38:52;;;;;;;9.23;4.00;;;17.80;99.90;;;;;;476630;248;29248;-79
2023/07/03 08:40:53;;;;;;;10.43;3.77;;;17.60;99.90;;;;;;468819;253;29654;-79
2023/07/03 08:42:54;;;;;;;9.67;4.50;;;17.50;99.90;;;;;;476685;248;29385;-79
2023/07/03 08:44:56;;;;;;;14.33;4.63;;;17.10;99.90;;;;;;468813;253;29098;-78
2023/07/03 08:46:57;;;;;;;14.77;4.13;;;17.00;99.90;;;;;;476673;248;28787;-79
2023/07/03 08:49:03;;;;;;;11.93;3.50;;;17.00;99.90;;;;;;468803;253;29037;-80
2023/07/03 08:50:59;;;;;;;11.83;3.80;;;17.00;99.90;;;;;;476338;249;28792;-79
2023/07/03 08:53:02;;;;;;;8.87;4.03;;;16.90;99.90;;;;;;468840;253;29035;-80
2023/07/03 08:55:02;;;;;;;8.53;3.73;;;17.10;99.90;;;;;;476523;249;28879;-79
2023/07/03 08:57:03;;;;;;;10.53;3.90;;;17.20;99.90;;;;;;468775;253;28908;-79
2023/07/03 08:59:06;;;;;;;17.23;4.73;;;17.70;99.90;;;;;;476666;248;29312;-79
2023/07/03 09:01:08;;;;;;;8.60;3.50;;;17.80;99.90;;;;;;468755;253;29480;-79
2023/07/03 09:03:07;;;;;;;9.50;3.60;;;18.10;99.90;;;;;;476523;249;29274;-79
2023/07/03 09:05:08;;;;;;;7.63;3.57;;;18.30;99.90;;;;;;468804;253;28977;-79
2023/07/03 09:07:09;;;;;;;6.47;3.60;;;18.30;99.90;;;;;;476667;248;28843;-79
2023/07/03 09:09:11;;;;;;;9.30;4.20;;;18.30;99.90;;;;;;468803;253;28906;-79
2023/07/03 09:11:12;;;;;;;8.13;3.57;;;18.20;99.90;;;;;;476698;248;28767;-79
2023/07/03 09:13:13;;;;;;;13.23;4.00;;;18.10;99.90;;;;;;468806;253;28856;-79
2023/07/03 09:15:14;;;;;;;13.40;4.17;;;18.00;99.90;;;;;;476676;248;29133;-79
2023/07/03 09:17:16;;;;;;;9.60;4.17;;;17.90;99.90;;;;;;468819;253;28871;-79
2023/07/03 09:19:17;;;;;;;6.80;3.60;;;17.90;99.90;;;;;;476688;248;28768;-79
2023/07/03 09:21:18;;;;;;;7.60;3.57;;;18.10;99.90;;;;;;468795;253;29485;-79
2023/07/03 09:23:19;;;;;;;10.10;3.60;;;18.20;99.90;;;;;;476668;248;29323;-79
2023/07/03 09:25:21;;;;;;;30.03;4.00;;;18.50;99.90;;;;;;468802;253;29427;-79
2023/07/03 09:27:22;;;;;;;9.00;3.57;;;18.50;99.90;;;;;;476673;248;28795;-79
2023/07/03 09:29:23;;;;;;;8.63;3.93;;;18.50;99.90;;;;;;468811;249;28905;-79
2023/07/03 09:31:25;;;;;;;6.07;3.20;;;18.70;99.90;;;;;;476696;248;28788;-79
2023/07/03 09:33:26;;;;;;;7.67;3.30;;;18.70;99.90;;;;;;468816;253;28870;-79
2023/07/03 09:35:27;;;;;;;8.50;3.63;;;18.70;99.90;;;;;;476652;248;28827;-79
2023/07/03 09:37:28;;;;;;;9.03;3.40;;;18.90;99.90;;;;;;468790;253;29033;-79
2023/07/03 09:39:29;;;;;;;9.43;3.60;;;18.90;99.90;;;;;;476643;248;28805;-79
2023/07/03 09:41:31;;;;;;;6.80;3.63;;;19.10;99.90;;;;;;468751;253;29041;-79
2023/07/03 09:43:32;;;;;;;9.60;3.40;;;19.00;99.90;;;;;;476680;248;28751;-79
2023/07/03 09:45:33;;;;;;;10.10;3.90;;;18.90;99.90;;;;;;468806;253;29403;-79
2023/07/03 09:47:34;;;;;;;8.20;3.60;;;19.00;99.90;;;;;;476648;248;29231;-79
2023/07/03 09:49:36;;;;;;;7.97;3.03;;;19.30;99.90;;;;;;468788;253;29393;-79
2023/07/03 09:51:37;;;;;;;6.67;3.30;;;19.40;99.90;;;;;;476666;248;28768;-79
2023/07/03 09:53:38;;;;;;;8.90;3.30;;;19.20;99.90;;;;;;468818;253;28910;-79
2023/07/03 09:55:40;;;;;;;11.13;3.40;;;19.20;99.90;;;;;;476632;248;28795;-79
2023/07/03 09:57:41;;;;;;;8.60;3.60;;;19.10;99.90;;;;;;468791;253;28987;-78
2023/07/03 09:59:42;;;;;;;8.30;3.80;;;19.30;99.90;;;;;;476656;248;28804;-79
2023/07/03 10:01:43;;;;;;;7.80;3.07;;;19.40;99.90;;;;;;468780;248;28987;-79
2023/07/03 10:03:45;;;;;;;6.40;2.87;;;19.60;99.90;;;;;;476628;248;28733;-79
2023/07/03 10:05:46;;;;;;;8.50;3.10;;;19.70;99.90;;;;;;468810;253;28925;-80
2023/07/03 10:07:47;;;;;;;7.27;2.97;;;20.00;99.90;;;;;;476651;248;29257;-79
2023/07/03 10:09:48;;;;;;;6.90;3.27;;;20.20;99.90;;;;;;468782;253;29446;-78
2023/07/03 10:11:50;;;;;;;6.20;3.20;;;20.10;99.90;;;;;;476702;248;29255;-79
2023/07/03 10:13:54;;;;;;;12.37;3.77;;;19.90;99.90;;;;;;468792;253;29401;-79
2023/07/03 10:15:55;;;;;;;6.20;3.67;;;19.50;99.90;;;;;;476645;248;28770;-79
2023/07/03 10:17:56;;;;;;;5.47;3.20;;;19.20;99.90;;;;;;468811;253;28905;-79
2023/07/03 10:19:57;;;;;;;10.60;3.30;;;18.80;99.90;;;;;;476630;248;28778;-79
2023/07/03 10:21:59;;;;;;;6.17;3.40;;;18.60;99.90;;;;;;468793;253;29022;-79
2023/07/03 10:24:00;;;;;;;6.57;3.43;;;18.50;99.90;;;;;;476649;248;28759;-79
2023/07/03 10:26:04;;;;;;;6.67;3.43;;;18.70;99.90;;;;;;468794;253;28966;-79